»·PEaware :: N21394 KOSH-KOSH

N21394 :: KOSH-KOSH

FLIGHT INFORMATION

Flight Status: Arrived
Operator: Privately registered:
United States
More flights under this callsign
Pilot: Anthony S. (1624)
Aircraft: CESSNA 172 SKYHAWK
(C172)
More flights by this aircraft type
Origin: KOSH Wittman Regl
United States
Destination: KOSH Wittman Regl
United States
More flights between these airports :: More routes between these airports
Route: +
File this flight plan on PilotEdge
Remarks:
Altitude:
(Current/Filed)
0ft
Speed:
(Current/Filed)
0kts
Departed: 13-Jul-20 07:45 AM
Arrived: 13-Jul-20 08:32 AM
Distance/Time
Traveled:
1nm/0:47
Distance/Time
To Go:
Arrived

Flight Plot

Page will automatically refresh every two minutes.

Flight plan parsing failed; only flown route is shown


Map Options




Map Legend


Flown Route
Filed Route
Departure Airport
Arrival Airport
Navaid (VOR, NDB)
Fix

Horizontal Profiles

Position Reports

Time Latitude Longitude Heading Altitude Ground
Speed
13-Jul-20 07:35 43.991475 -88.556640 267 797ft 62kts
13-Jul-20 07:36 43.991521 -88.561934 270 781ft 0kts
13-Jul-20 07:45 43.898316 -88.747349 38 1806ft 97kts
13-Jul-20 07:46 43.898316 -88.747349 38 1806ft 97kts
13-Jul-20 07:46 43.898316 -88.747349 38 1806ft 97kts
13-Jul-20 07:48 43.898316 -88.747349 38 1806ft 97kts
13-Jul-20 07:48 43.898316 -88.747349 38 1806ft 97kts
13-Jul-20 07:49 43.898316 -88.747349 38 1806ft 97kts
13-Jul-20 07:51 43.898316 -88.747349 38 1806ft 97kts
13-Jul-20 07:51 43.898316 -88.747349 38 1806ft 97kts
13-Jul-20 07:52 43.898316 -88.747349 38 1806ft 97kts
13-Jul-20 07:53 43.898316 -88.747349 38 1806ft 97kts
13-Jul-20 07:54 43.898316 -88.747349 38 1806ft 97kts
13-Jul-20 07:55 43.898316 -88.747349 38 1806ft 97kts
13-Jul-20 07:56 43.898316 -88.747349 38 1806ft 97kts
13-Jul-20 07:57 43.898316 -88.747349 38 1806ft 97kts
13-Jul-20 07:58 43.898316 -88.747349 38 1806ft 97kts
13-Jul-20 07:59 43.898316 -88.747349 38 1806ft 97kts
13-Jul-20 08:00 43.898316 -88.747349 38 1806ft 97kts
13-Jul-20 08:01 43.898316 -88.747349 38 1806ft 97kts
13-Jul-20 08:02 43.898316 -88.747349 38 1806ft 97kts
13-Jul-20 08:03 43.898316 -88.747349 38 1806ft 97kts
13-Jul-20 08:04 43.898316 -88.747349 38 1806ft 97kts
13-Jul-20 08:05 43.898316 -88.747349 38 1806ft 97kts
13-Jul-20 08:06 43.898316 -88.747349 38 1806ft 97kts
13-Jul-20 08:07 43.898316 -88.747349 38 1806ft 97kts
13-Jul-20 08:08 43.898316 -88.747349 38 1806ft 97kts
13-Jul-20 08:09 43.898316 -88.747349 38 1806ft 97kts
13-Jul-20 08:10 43.898316 -88.747349 38 1806ft 97kts
13-Jul-20 08:11 43.901237 -88.744060 39 1805ft 96kts
13-Jul-20 08:12 43.920621 -88.722262 39 1876ft 92kts
13-Jul-20 08:13 43.940317 -88.698855 42 1749ft 92kts
13-Jul-20 08:14 43.958253 -88.673602 50 1900ft 89kts
13-Jul-20 08:15 43.972058 -88.645448 56 1892ft 88kts
13-Jul-20 08:16 43.982998 -88.621556 57 1785ft 88kts
13-Jul-20 08:17 43.989104 -88.607983 55 1866ft 87kts
13-Jul-20 08:18 43.989104 -88.607983 55 1866ft 87kts
13-Jul-20 08:19 43.989104 -88.607983 55 1866ft 87kts
13-Jul-20 08:20 43.989104 -88.607983 55 1866ft 87kts
13-Jul-20 08:21 43.989104 -88.607983 55 1866ft 87kts
13-Jul-20 08:22 43.989104 -88.607983 55 1866ft 87kts
13-Jul-20 08:23 43.989104 -88.607983 55 1866ft 87kts
13-Jul-20 08:24 43.989104 -88.607983 55 1866ft 87kts
13-Jul-20 08:25 43.989104 -88.607983 55 1866ft 87kts
13-Jul-20 08:26 43.989104 -88.607983 55 1866ft 87kts
13-Jul-20 08:27 43.989104 -88.607983 55 1866ft 87kts
13-Jul-20 08:28 43.994163 -88.597498 55 1875ft 84kts
13-Jul-20 08:29 44.002909 -88.569139 81 1792ft 76kts
13-Jul-20 08:30 43.997338 -88.544404 186 1346ft 99kts
13-Jul-20 08:31 43.992303 -88.568215 308 791ft 18kts
13-Jul-20 08:32 43.992497 -88.574312 270 800ft 26kts
13-Jul-20 08:33 43.991015 -88.575288 92 803ft 15kts
13-Jul-20 08:34 43.990928 -88.572233 83 799ft 1kts
13-Jul-20 08:35 43.990928 -88.572233 83 799ft 1kts
13-Jul-20 08:36 43.990928 -88.572233 83 799ft 1kts

Navigation Log

Ident Type
Flight plan parsing failed, navigation log unavailable